createdAt,value
2022-12-03T00:01:21.642Z,13.00
2022-12-03T00:03:50.338Z,13.93
2022-12-03T00:06:20.404Z,13.60
2022-12-03T00:08:48.785Z,12.17
2022-12-03T00:11:17.228Z,13.70
2022-12-03T00:13:45.918Z,13.77
2022-12-03T00:16:14.605Z,13.83
2022-12-03T00:18:43.211Z,13.27
2022-12-03T00:21:11.799Z,12.67
2022-12-03T00:23:42.559Z,12.83
2022-12-03T00:26:11.235Z,12.77
2022-12-03T00:28:39.945Z,13.37
2022-12-03T00:31:09.055Z,14.57
2022-12-03T00:33:37.704Z,13.27
2022-12-03T00:36:06.910Z,12.67
2022-12-03T00:38:35.483Z,13.67
2022-12-03T00:41:05.449Z,13.43
2022-12-03T00:43:33.921Z,13.63
2022-12-03T00:46:03.527Z,14.13
2022-12-03T00:48:32.196Z,13.17
2022-12-03T00:51:00.674Z,13.77
2022-12-03T00:53:29.206Z,12.63
2022-12-03T00:55:57.592Z,12.70
2022-12-03T00:58:27.577Z,13.23
2022-12-03T01:00:56.031Z,12.57
2022-12-03T01:03:24.515Z,13.30
2022-12-03T01:05:53.156Z,14.13
2022-12-03T01:08:21.683Z,12.67
2022-12-03T01:10:50.076Z,12.23
2022-12-03T01:13:18.609Z,12.57
2022-12-03T01:15:48.667Z,12.37
2022-12-03T01:18:17.250Z,12.03
2022-12-03T01:20:45.792Z,13.57
2022-12-03T01:23:14.770Z,13.90
2022-12-03T01:25:43.229Z,11.70
2022-12-03T01:28:11.896Z,12.90
2022-12-03T01:30:54.153Z,12.77
2022-12-03T01:33:24.008Z,12.57
2022-12-03T01:35:52.446Z,12.13
2022-12-03T01:38:21.225Z,12.97
2022-12-03T01:40:49.944Z,12.63
2022-12-03T01:43:18.578Z,12.37
2022-12-03T01:45:46.996Z,13.10
2022-12-03T01:48:16.735Z,12.70
2022-12-03T01:50:47.054Z,14.40
2022-12-03T01:53:18.403Z,12.00
2022-12-03T01:55:48.951Z,13.03
2022-12-03T01:58:18.469Z,12.80
2022-12-03T02:00:46.967Z,13.33
2022-12-03T02:03:18.772Z,13.80
2022-12-03T02:05:48.853Z,13.60
2022-12-03T02:08:31.553Z,12.93
2022-12-03T02:11:03.797Z,12.07
2022-12-03T02:13:32.423Z,13.93
2022-12-03T02:16:01.169Z,13.10
2022-12-03T02:18:30.019Z,12.70
2022-12-03T02:21:06.370Z,12.80
2022-12-03T02:23:39.234Z,12.90
2022-12-03T02:26:09.191Z,13.60
2022-12-03T02:28:38.178Z,13.23
2022-12-03T02:31:07.319Z,12.30
2022-12-03T02:33:35.875Z,11.77
2022-12-03T02:36:04.872Z,13.27
2022-12-03T02:38:34.234Z,12.50
2022-12-03T02:41:06.007Z,12.57
2022-12-03T02:43:34.874Z,12.93
2022-12-03T02:46:04.122Z,12.43
2022-12-03T02:48:34.842Z,12.23
2022-12-03T02:51:07.033Z,12.47
2022-12-03T02:53:38.845Z,14.07
2022-12-03T02:56:08.290Z,12.33
2022-12-03T02:58:38.480Z,13.40
2022-12-03T03:01:07.358Z,12.80
2022-12-03T03:03:36.042Z,13.23
2022-12-03T03:06:04.943Z,12.67
2022-12-03T03:08:33.620Z,13.13
2022-12-03T03:11:02.667Z,12.73
2022-12-03T03:13:32.158Z,11.97
2022-12-03T03:16:03.496Z,12.53
2022-12-03T03:18:32.199Z,12.13
2022-12-03T03:21:00.697Z,13.33
2022-12-03T03:23:29.256Z,12.67
2022-12-03T03:26:00.168Z,13.53
2022-12-03T03:28:30.204Z,13.37
2022-12-03T03:30:59.588Z,12.40
2022-12-03T03:33:29.455Z,13.70
2022-12-03T03:36:00.035Z,13.00
2022-12-03T03:38:29.043Z,11.73
2022-12-03T03:40:58.232Z,13.20
2022-12-03T03:43:27.333Z,11.97
2022-12-03T03:45:56.166Z,13.90
2022-12-03T03:48:24.696Z,12.33
2022-12-03T03:50:54.717Z,14.00
2022-12-03T03:53:23.546Z,15.37
2022-12-03T03:55:52.463Z,13.50
2022-12-03T03:58:20.965Z,14.37
2022-12-03T04:00:49.715Z,14.53
2022-12-03T04:03:19.182Z,13.03
2022-12-03T04:05:47.803Z,14.03
2022-12-03T04:08:17.711Z,15.80
2022-12-03T04:11:03.702Z,14.10
2022-12-03T04:13:32.205Z,14.20
2022-12-03T04:16:00.684Z,13.57
2022-12-03T04:18:44.273Z,14.17
2022-12-03T04:21:31.064Z,12.77
2022-12-03T04:24:01.213Z,13.90
2022-12-03T04:26:47.493Z,13.63
2022-12-03T04:29:19.610Z,14.00
2022-12-03T04:32:06.248Z,13.10
2022-12-03T04:34:52.719Z,12.73
2022-12-03T04:37:21.487Z,13.17
2022-12-03T04:39:51.412Z,14.30
2022-12-03T04:42:19.664Z,13.87
2022-12-03T04:44:48.231Z,13.30
2022-12-03T04:47:18.262Z,13.10
2022-12-03T04:49:48.257Z,13.20
2022-12-03T04:52:18.080Z,12.50
2022-12-03T04:54:47.036Z,11.73
2022-12-03T04:57:16.889Z,12.17
2022-12-03T04:59:45.184Z,12.23
2022-12-03T05:02:13.722Z,12.83
2022-12-03T05:04:42.195Z,12.47
2022-12-03T05:07:12.030Z,13.30
2022-12-03T05:09:40.420Z,13.70
2022-12-03T05:12:09.066Z,12.57
2022-12-03T05:14:39.101Z,11.87
2022-12-03T05:17:07.564Z,12.43
2022-12-03T05:19:53.516Z,12.93
2022-12-03T05:22:21.997Z,11.83
2022-12-03T05:24:50.441Z,12.17
2022-12-03T05:27:23.368Z,14.00
2022-12-03T05:29:53.901Z,11.87
2022-12-03T05:32:22.568Z,13.03
2022-12-03T05:34:51.254Z,13.13
2022-12-03T05:37:20.153Z,13.27
2022-12-03T05:39:48.717Z,12.53
2022-12-03T05:42:34.456Z,12.20
2022-12-03T05:45:04.843Z,12.90
2022-12-03T05:47:33.412Z,14.07
2022-12-03T05:50:01.966Z,12.93
2022-12-03T05:52:30.369Z,11.97
2022-12-03T05:54:58.757Z,13.07
2022-12-03T05:57:27.312Z,14.20
2022-12-03T05:59:55.893Z,12.63
2022-12-03T06:02:25.989Z,13.40
2022-12-03T06:04:54.764Z,13.00
2022-12-03T06:07:23.419Z,12.93
2022-12-03T06:09:52.115Z,12.50
2022-12-03T06:12:20.469Z,13.13
2022-12-03T06:14:49.132Z,12.80
2022-12-03T06:17:17.674Z,13.37
2022-12-03T06:19:47.355Z,13.10
2022-12-03T06:22:15.842Z,14.27
2022-12-03T06:24:44.223Z,13.90
2022-12-03T06:27:12.819Z,14.17
2022-12-03T06:29:41.207Z,13.43
2022-12-03T06:32:09.878Z,14.13
2022-12-03T06:34:38.486Z,13.90
2022-12-03T06:37:09.045Z,12.60
2022-12-03T06:39:37.603Z,11.90
2022-12-03T06:42:06.378Z,14.13
2022-12-03T06:44:34.873Z,13.23
2022-12-03T06:47:04.169Z,12.33
2022-12-03T06:49:32.793Z,14.37
2022-12-03T06:52:01.211Z,13.53
2022-12-03T06:54:31.044Z,12.90
2022-12-03T06:56:59.419Z,14.10
2022-12-03T06:59:27.937Z,14.77
2022-12-03T07:01:56.637Z,14.47
2022-12-03T07:04:25.041Z,12.93
2022-12-03T07:06:53.408Z,13.27
2022-12-03T07:09:21.918Z,13.73
2022-12-03T07:11:51.947Z,13.57
2022-12-03T07:14:20.586Z,13.27
2022-12-03T07:16:48.913Z,13.40
2022-12-03T07:19:17.448Z,13.10
2022-12-03T07:21:45.959Z,14.63
2022-12-03T07:24:14.410Z,14.73
2022-12-03T07:26:42.864Z,15.17
2022-12-03T07:29:13.414Z,13.10
2022-12-03T07:31:41.747Z,12.80
2022-12-03T07:34:10.298Z,13.50
2022-12-03T07:36:38.763Z,13.50
2022-12-03T07:39:07.383Z,12.20
2022-12-03T07:41:35.915Z,14.50
2022-12-03T07:44:07.820Z,13.77
2022-12-03T07:46:43.779Z,14.53
2022-12-03T07:49:13.355Z,13.47
2022-12-03T07:51:41.939Z,13.53
2022-12-03T07:54:10.345Z,12.93
2022-12-03T07:56:38.930Z,14.03
2022-12-03T07:59:07.408Z,14.90
2022-12-03T08:01:36.013Z,13.63
2022-12-03T08:04:06.093Z,13.70
2022-12-03T08:06:34.596Z,14.13
2022-12-03T08:09:03.135Z,13.90
2022-12-03T08:11:31.672Z,14.00
2022-12-03T08:14:00.421Z,14.37
2022-12-03T08:16:31.300Z,13.50
2022-12-03T08:18:59.669Z,14.50
2022-12-03T08:21:35.822Z,14.37
2022-12-03T08:24:14.331Z,12.57
2022-12-03T08:26:44.249Z,14.77
2022-12-03T08:29:14.536Z,14.40
2022-12-03T08:31:43.538Z,12.97
2022-12-03T08:34:20.209Z,13.33
2022-12-03T08:36:52.823Z,13.83
2022-12-03T08:39:31.242Z,13.23
2022-12-03T08:42:27.033Z,13.60
2022-12-03T08:44:56.277Z,12.93
2022-12-03T08:47:25.565Z,12.93
2022-12-03T08:49:58.083Z,13.50
2022-12-03T08:52:33.652Z,14.17
2022-12-03T08:55:11.948Z,13.37
2022-12-03T08:57:43.862Z,14.37
2022-12-03T09:00:20.088Z,14.37
2022-12-03T09:02:51.247Z,14.27
2022-12-03T09:05:21.859Z,13.77
2022-12-03T09:07:51.920Z,13.87
2022-12-03T09:10:20.365Z,13.30
2022-12-03T09:12:48.870Z,12.87
2022-12-03T09:15:17.583Z,12.43
2022-12-03T09:17:46.315Z,11.73
2022-12-03T09:20:15.241Z,13.90
2022-12-03T09:22:43.627Z,13.03
2022-12-03T09:25:13.608Z,12.10
2022-12-03T09:27:42.578Z,11.83
2022-12-03T09:30:11.505Z,13.10
2022-12-03T09:32:39.808Z,12.10
2022-12-03T09:35:09.548Z,13.30
2022-12-03T09:37:38.094Z,12.57
2022-12-03T09:40:07.896Z,12.67
2022-12-03T09:42:38.131Z,12.97
2022-12-03T09:45:12.260Z,13.53
2022-12-03T09:47:41.705Z,14.00
2022-12-03T09:50:14.430Z,13.77
2022-12-03T09:52:42.891Z,14.40
2022-12-03T09:55:17.494Z,12.57
2022-12-03T09:57:47.260Z,12.73
2022-12-03T10:00:18.779Z,12.77
2022-12-03T10:02:47.990Z,12.67
2022-12-03T10:05:17.057Z,13.10
2022-12-03T10:07:45.691Z,13.40
2022-12-03T10:10:16.830Z,14.00
2022-12-03T10:12:47.169Z,13.73
2022-12-03T10:15:17.680Z,13.17
2022-12-03T10:17:48.057Z,12.80
2022-12-03T10:20:22.061Z,12.90
2022-12-03T10:22:50.608Z,13.50
2022-12-03T10:25:21.182Z,15.60
2022-12-03T10:27:59.929Z,14.00
2022-12-03T10:30:29.384Z,12.63
2022-12-03T10:32:59.154Z,12.50
2022-12-03T10:35:38.607Z,13.73
2022-12-03T10:38:08.259Z,14.33
2022-12-03T10:40:38.199Z,13.53
2022-12-03T10:43:21.932Z,14.20
2022-12-03T10:45:51.433Z,14.50
2022-12-03T10:48:21.344Z,12.13
2022-12-03T10:50:52.012Z,13.37
2022-12-03T10:53:21.472Z,13.57
2022-12-03T10:55:52.670Z,13.20
2022-12-03T10:58:25.026Z,13.50
2022-12-03T11:00:55.014Z,13.77
2022-12-03T11:03:25.057Z,12.63
2022-12-03T11:05:54.848Z,13.83
2022-12-03T11:08:24.564Z,14.10
2022-12-03T11:11:00.924Z,14.03
2022-12-03T11:13:46.331Z,13.07
2022-12-03T11:16:16.075Z,15.03
2022-12-03T11:19:02.316Z,14.90
2022-12-03T11:21:31.483Z,15.27
2022-12-03T11:24:22.336Z,14.90
2022-12-03T11:27:22.036Z,14.57
2022-12-03T11:30:13.355Z,14.13
2022-12-03T11:33:06.311Z,14.73
2022-12-03T11:36:07.852Z,15.70
2022-12-03T11:38:57.391Z,14.63
2022-12-03T11:41:31.670Z,13.80
2022-12-03T11:44:31.098Z,16.50
2022-12-03T11:47:02.520Z,13.80
2022-12-03T11:49:35.129Z,15.53
2022-12-03T11:52:12.995Z,14.03
2022-12-03T11:54:41.456Z,13.90
2022-12-03T11:57:32.374Z,13.87
2022-12-03T12:00:04.620Z,14.43
2022-12-03T12:02:42.091Z,14.80
2022-12-03T12:05:27.049Z,13.03
2022-12-03T12:07:56.650Z,14.33
2022-12-03T12:10:47.545Z,14.97
2022-12-03T12:13:52.834Z,14.77
2022-12-03T12:16:55.479Z,14.27
2022-12-03T12:19:40.227Z,13.43
2022-12-03T12:22:20.433Z,12.70
2022-12-03T12:24:52.327Z,15.00
2022-12-03T12:27:23.295Z,14.20
2022-12-03T12:29:57.347Z,12.93
2022-12-03T12:32:28.862Z,12.43
2022-12-03T12:35:01.960Z,12.73
2022-12-03T12:37:36.467Z,13.47
2022-12-03T12:40:15.186Z,14.07
2022-12-03T12:42:47.243Z,13.10
2022-12-03T12:45:17.352Z,14.53
2022-12-03T12:47:51.012Z,12.63
2022-12-03T12:50:21.499Z,12.10
2022-12-03T12:52:55.910Z,13.00
2022-12-03T12:55:25.222Z,12.10
2022-12-03T12:57:53.818Z,13.27
2022-12-03T13:00:24.546Z,12.90
2022-12-03T13:02:56.625Z,12.67
2022-12-03T13:05:27.869Z,12.17
2022-12-03T13:07:56.582Z,11.17
2022-12-03T13:10:37.899Z,13.20
2022-12-03T13:13:24.464Z,11.60
2022-12-03T13:15:59.027Z,11.40
2022-12-03T13:18:31.299Z,13.07
2022-12-03T13:21:01.364Z,13.70
2022-12-03T13:23:33.501Z,13.47
2022-12-03T13:26:19.382Z,15.03
2022-12-03T13:28:53.668Z,14.57
2022-12-03T13:31:27.931Z,12.70
2022-12-03T13:33:57.447Z,12.90
2022-12-03T13:36:37.666Z,14.80
2022-12-03T13:39:20.333Z,13.27
2022-12-03T13:42:06.783Z,14.93
2022-12-03T13:44:36.260Z,15.70
2022-12-03T13:47:13.973Z,15.17
2022-12-03T13:49:42.975Z,14.57
2022-12-03T13:52:17.065Z,14.47
2022-12-03T13:54:46.137Z,15.30
2022-12-03T13:57:14.614Z,13.40
2022-12-03T13:59:42.941Z,17.10
2022-12-03T14:02:12.966Z,14.47
2022-12-03T14:04:41.748Z,14.33
2022-12-03T14:07:10.154Z,15.53
2022-12-03T14:09:40.051Z,16.27
2022-12-03T14:12:26.816Z,14.60
2022-12-03T14:14:55.456Z,13.73
2022-12-03T14:17:24.282Z,14.33
2022-12-03T14:19:53.465Z,15.73
2022-12-03T14:22:25.495Z,15.53
2022-12-03T14:24:55.518Z,15.17
2022-12-03T14:27:25.986Z,16.80
2022-12-03T14:29:54.615Z,17.90
2022-12-03T14:32:23.959Z,17.80
2022-12-03T14:34:52.451Z,17.07
2022-12-03T14:37:21.090Z,19.20
2022-12-03T14:39:49.891Z,16.87
2022-12-03T14:42:19.745Z,17.63
2022-12-03T14:44:49.429Z,18.43
2022-12-03T14:47:19.944Z,18.60
2022-12-03T14:49:48.332Z,20.50
2022-12-03T14:52:17.162Z,19.43
2022-12-03T14:54:46.351Z,19.90
2022-12-03T14:57:16.451Z,20.03
2022-12-03T14:59:47.234Z,19.83
2022-12-03T15:02:15.783Z,22.10
2022-12-03T15:04:44.282Z,20.43
2022-12-03T15:07:12.931Z,21.43
2022-12-03T15:09:41.497Z,22.83
2022-12-03T15:12:10.331Z,22.47
2022-12-03T15:14:38.754Z,26.40
2022-12-03T15:17:08.887Z,24.90
2022-12-03T15:19:37.845Z,25.47
2022-12-03T15:22:06.280Z,25.53
2022-12-03T15:24:34.954Z,26.17
2022-12-03T15:27:03.431Z,27.13
2022-12-03T15:29:32.937Z,27.70
2022-12-03T15:32:03.188Z,28.37
2022-12-03T15:34:33.217Z,26.90
2022-12-03T15:37:01.860Z,26.70
2022-12-03T15:39:31.067Z,28.10
2022-12-03T15:41:59.441Z,29.53
2022-12-03T15:44:28.058Z,30.37
2022-12-03T15:46:56.536Z,29.67
2022-12-03T15:49:25.011Z,27.70
2022-12-03T15:51:54.838Z,27.53
2022-12-03T15:54:23.582Z,27.27
2022-12-03T15:56:57.045Z,26.90
2022-12-03T15:59:26.293Z,24.37
2022-12-03T16:01:54.676Z,24.30
2022-12-03T16:04:23.303Z,24.73
2022-12-03T16:06:51.552Z,25.43
2022-12-03T16:09:26.967Z,23.53
2022-12-03T16:11:56.418Z,24.23
2022-12-03T16:14:24.851Z,23.27
2022-12-03T16:16:53.344Z,23.13
2022-12-03T16:19:21.940Z,25.50
2022-12-03T16:21:50.697Z,26.27
2022-12-03T16:24:19.363Z,24.50
2022-12-03T16:26:49.410Z,24.13
2022-12-03T16:29:17.788Z,25.67
2022-12-03T16:31:46.408Z,24.13
2022-12-03T16:34:15.699Z,25.33
2022-12-03T16:36:45.669Z,26.03
2022-12-03T16:39:14.195Z,27.40
2022-12-03T16:41:42.874Z,25.83
2022-12-03T16:44:30.384Z,26.33
2022-12-03T16:46:58.997Z,25.13
2022-12-03T16:49:27.492Z,24.57
2022-12-03T16:51:56.049Z,27.03
2022-12-03T16:54:24.655Z,26.50
2022-12-03T16:56:53.197Z,24.90
2022-12-03T16:59:23.172Z,25.27
2022-12-03T17:01:52.488Z,25.70
2022-12-03T17:04:21.314Z,24.27
2022-12-03T17:06:49.847Z,28.63
2022-12-03T17:09:18.311Z,23.37
2022-12-03T17:11:46.954Z,23.93
2022-12-03T17:14:15.490Z,25.50
2022-12-03T17:16:45.462Z,22.10
2022-12-03T17:19:16.452Z,25.97
2022-12-03T17:21:46.323Z,26.70
2022-12-03T17:24:14.887Z,24.40
2022-12-03T17:26:44.743Z,22.03
2022-12-03T17:29:14.215Z,25.63
2022-12-03T17:31:44.477Z,23.67
2022-12-03T17:34:12.979Z,23.70
2022-12-03T17:36:41.420Z,27.33
2022-12-03T17:39:09.898Z,23.27
2022-12-03T17:41:38.384Z,23.17
2022-12-03T17:44:10.689Z,26.97
2022-12-03T17:46:39.432Z,29.17
2022-12-03T17:49:09.460Z,26.90
2022-12-03T17:51:39.382Z,27.53
2022-12-03T17:54:07.846Z,25.47
2022-12-03T17:56:36.423Z,24.23
2022-12-03T17:59:04.912Z,28.00
2022-12-03T18:01:33.493Z,26.17
2022-12-03T18:04:02.004Z,25.50
2022-12-03T18:06:32.178Z,25.03
2022-12-03T18:09:00.743Z,23.20
2022-12-03T18:11:30.014Z,26.03
2022-12-03T18:13:58.591Z,25.67
2022-12-03T18:16:27.213Z,27.83
2022-12-03T18:18:57.693Z,28.83
2022-12-03T18:21:29.347Z,25.10
2022-12-03T18:24:00.350Z,24.97
2022-12-03T18:26:28.918Z,26.07
2022-12-03T18:28:57.428Z,23.97
2022-12-03T18:31:26.050Z,22.70
2022-12-03T18:33:54.636Z,27.37
2022-12-03T18:36:24.986Z,25.63
2022-12-03T18:38:55.392Z,27.07
2022-12-03T18:41:26.071Z,27.83
2022-12-03T18:43:54.551Z,28.03
2022-12-03T18:46:51.817Z,25.90
2022-12-03T18:49:12.465Z,26.90
2022-12-03T18:51:41.086Z,28.13
2022-12-03T18:54:13.495Z,28.57
2022-12-03T18:56:43.317Z,26.93
2022-12-03T18:59:12.348Z,29.60
2022-12-03T19:01:40.887Z,30.67
2022-12-03T19:04:10.756Z,29.10
2022-12-03T19:06:39.168Z,30.23
2022-12-03T19:09:07.671Z,27.17
2022-12-03T19:11:37.230Z,25.07
2022-12-03T19:14:09.152Z,23.57
2022-12-03T19:16:38.592Z,26.27
2022-12-03T19:19:07.759Z,27.47
2022-12-03T19:21:36.901Z,24.37
2022-12-03T19:26:55.656Z,26.53
2022-12-03T19:29:26.159Z,33.63
2022-12-03T19:31:54.967Z,22.10
2022-12-03T19:34:24.210Z,27.70
2022-12-03T19:36:52.510Z,27.60
2022-12-03T19:39:21.097Z,26.23
2022-12-03T19:41:49.687Z,26.87
2022-12-03T19:44:19.860Z,25.77
2022-12-03T19:46:50.897Z,27.77
2022-12-03T19:49:21.221Z,26.40
2022-12-03T19:51:49.831Z,25.33
2022-12-03T19:54:18.886Z,25.53
2022-12-03T19:56:47.630Z,26.90
2022-12-03T19:59:17.147Z,29.10
2022-12-03T20:01:45.870Z,28.30
2022-12-03T20:04:15.845Z,26.23
2022-12-03T20:06:45.445Z,25.83
2022-12-03T20:09:17.630Z,27.30
2022-12-03T20:11:46.470Z,27.40
2022-12-03T20:14:16.177Z,27.43
2022-12-03T20:16:45.093Z,25.37
2022-12-03T20:19:16.731Z,24.53
2022-12-03T20:21:45.432Z,23.60
2022-12-03T20:24:16.990Z,23.73
2022-12-03T20:26:45.473Z,24.07
2022-12-03T20:29:14.067Z,25.03
2022-12-03T20:31:42.690Z,24.50
2022-12-03T20:34:11.790Z,25.67
2022-12-03T20:36:42.863Z,23.40
2022-12-03T20:39:11.986Z,24.17
2022-12-03T20:41:40.648Z,26.13
2022-12-03T20:44:10.031Z,23.83
2022-12-03T20:46:38.620Z,26.27
2022-12-03T20:49:07.233Z,24.37
2022-12-03T20:51:35.580Z,26.47
2022-12-03T20:54:05.761Z,24.53
2022-12-03T20:56:35.675Z,25.87
2022-12-03T20:59:08.329Z,27.83
2022-12-03T21:01:38.474Z,25.93
2022-12-03T21:04:08.422Z,27.23
2022-12-03T21:06:37.757Z,28.83
2022-12-03T21:09:08.769Z,28.77
2022-12-03T21:11:40.129Z,26.77
2022-12-03T21:14:08.657Z,28.07
2022-12-03T21:17:07.212Z,29.37
2022-12-03T21:19:28.022Z,29.10
2022-12-03T21:21:56.483Z,26.80
2022-12-03T21:24:26.644Z,29.37
2022-12-03T21:26:55.301Z,29.03
2022-12-03T21:29:23.983Z,27.57
2022-12-03T21:31:52.486Z,29.83
2022-12-03T21:34:21.376Z,28.93
2022-12-03T21:36:49.605Z,29.37
2022-12-03T21:39:18.809Z,28.93
2022-12-03T21:42:34.719Z,31.00
2022-12-03T21:44:38.509Z,28.60
2022-12-03T21:47:11.511Z,29.97
2022-12-03T21:49:42.476Z,32.83
2022-12-03T21:52:11.408Z,32.70
2022-12-03T21:54:39.752Z,32.67
2022-12-03T21:57:09.571Z,33.70
2022-12-03T21:59:37.971Z,31.20
2022-12-03T22:02:06.580Z,33.97
2022-12-03T22:04:35.371Z,33.93
2022-12-03T22:07:03.939Z,33.43
2022-12-03T22:09:33.155Z,36.07
2022-12-03T22:12:01.745Z,31.83
2022-12-03T22:14:32.251Z,33.80
2022-12-03T22:17:00.864Z,33.37
2022-12-03T22:19:29.536Z,32.87
2022-12-03T22:21:58.106Z,31.33
2022-12-03T22:24:26.493Z,31.57
2022-12-03T22:26:55.076Z,34.17
2022-12-03T22:29:23.491Z,31.43
2022-12-03T22:31:53.370Z,31.73
2022-12-03T22:34:22.162Z,32.53
2022-12-03T22:36:50.793Z,31.97
2022-12-03T22:39:19.325Z,35.10
2022-12-03T22:41:47.698Z,31.73
2022-12-03T22:44:16.287Z,31.97
2022-12-03T22:46:44.838Z,32.13
2022-12-03T22:49:15.011Z,33.27
2022-12-03T22:51:46.663Z,32.80
2022-12-03T22:54:18.296Z,34.17
2022-12-03T22:56:50.928Z,34.07
2022-12-03T22:59:19.402Z,34.43
2022-12-03T23:01:47.943Z,33.10
2022-12-03T23:04:17.973Z,32.13
2022-12-03T23:06:46.537Z,31.43
2022-12-03T23:09:15.236Z,33.40
2022-12-03T23:11:45.376Z,32.70
2022-12-03T23:14:14.291Z,32.97
2022-12-03T23:16:43.041Z,32.83
2022-12-03T23:19:11.847Z,33.93
2022-12-03T23:21:41.786Z,34.20
2022-12-03T23:24:11.126Z,32.30
2022-12-03T23:26:40.729Z,32.93
2022-12-03T23:29:09.183Z,34.37
2022-12-03T23:31:37.799Z,33.40
2022-12-03T23:34:06.489Z,32.93
2022-12-03T23:36:35.491Z,31.90
2022-12-03T23:39:05.731Z,33.97
2022-12-03T23:41:34.241Z,31.67
2022-12-03T23:44:02.788Z,31.10
2022-12-03T23:46:31.433Z,32.67
2022-12-03T23:49:00.462Z,32.83
2022-12-03T23:51:29.146Z,33.10
2022-12-03T23:53:57.970Z,32.80
2022-12-03T23:56:29.608Z,31.90
2022-12-03T23:58:58.540Z,33.40
